sensor_id;sensor_type;location;lat;lon;timestamp;P1;durP1;ratioP1;P2;durP2;ratioP2
3971;SDS011;2000;47.572;14.202;2022-07-21T00:00:22;10.70;;;4.03;;
3971;SDS011;2000;47.572;14.202;2022-07-21T00:02:50;13.80;;;5.03;;
3971;SDS011;2000;47.572;14.202;2022-07-21T00:05:17;10.50;;;4.13;;
3971;SDS011;2000;47.572;14.202;2022-07-21T00:07:44;10.93;;;5.17;;
3971;SDS011;2000;47.572;14.202;2022-07-21T00:10:11;4.10;;;3.40;;
3971;SDS011;2000;47.572;14.202;2022-07-21T00:12:39;9.43;;;3.17;;
3971;SDS011;2000;47.572;14.202;2022-07-21T00:15:06;13.60;;;3.50;;
3971;SDS011;2000;47.572;14.202;2022-07-21T00:17:33;9.50;;;4.80;;
3971;SDS011;2000;47.572;14.202;2022-07-21T00:20:00;6.60;;;4.17;;
3971;SDS011;2000;47.572;14.202;2022-07-21T00:22:27;7.73;;;4.37;;
3971;SDS011;2000;47.572;14.202;2022-07-21T00:24:54;6.73;;;4.60;;
3971;SDS011;2000;47.572;14.202;2022-07-21T00:27:21;5.20;;;4.30;;
3971;SDS011;2000;47.572;14.202;2022-07-21T00:29:47;7.80;;;4.20;;
3971;SDS011;2000;47.572;14.202;2022-07-21T00:32:14;4.40;;;3.90;;
3971;SDS011;2000;47.572;14.202;2022-07-21T00:34:41;6.13;;;4.30;;
3971;SDS011;2000;47.572;14.202;2022-07-21T00:37:07;5.20;;;3.30;;
3971;SDS011;2000;47.572;14.202;2022-07-21T00:39:34;5.57;;;3.80;;
3971;SDS011;2000;47.572;14.202;2022-07-21T00:42:02;6.50;;;3.50;;
3971;SDS011;2000;47.572;14.202;2022-07-21T00:44:29;7.50;;;4.27;;
3971;SDS011;2000;47.572;14.202;2022-07-21T00:46:56;7.03;;;3.97;;
3971;SDS011;2000;47.572;14.202;2022-07-21T00:49:24;6.83;;;4.27;;
3971;SDS011;2000;47.572;14.202;2022-07-21T00:51:51;5.53;;;4.13;;
3971;SDS011;2000;47.572;14.202;2022-07-21T00:54:18;9.83;;;4.30;;
3971;SDS011;2000;47.572;14.202;2022-07-21T00:56:45;6.07;;;4.43;;
3971;SDS011;2000;47.572;14.202;2022-07-21T00:59:12;5.40;;;4.13;;
3971;SDS011;2000;47.572;14.202;2022-07-21T01:01:39;4.10;;;3.80;;
3971;SDS011;2000;47.572;14.202;2022-07-21T01:04:06;6.90;;;4.00;;
3971;SDS011;2000;47.572;14.202;2022-07-21T01:06:33;6.03;;;3.93;;
3971;SDS011;2000;47.572;14.202;2022-07-21T01:08:59;5.23;;;4.10;;
3971;SDS011;2000;47.572;14.202;2022-07-21T01:11:30;5.37;;;4.63;;
3971;SDS011;2000;47.572;14.202;2022-07-21T01:13:57;11.60;;;4.27;;
3971;SDS011;2000;47.572;14.202;2022-07-21T01:16:24;4.80;;;4.20;;
3971;SDS011;2000;47.572;14.202;2022-07-21T01:18:51;6.83;;;4.20;;
3971;SDS011;2000;47.572;14.202;2022-07-21T01:24:15;5.40;;;4.00;;
3971;SDS011;2000;47.572;14.202;2022-07-21T01:26:43;9.30;;;3.70;;
3971;SDS011;2000;47.572;14.202;2022-07-21T01:29:13;4.47;;;3.57;;
3971;SDS011;2000;47.572;14.202;2022-07-21T01:31:41;5.50;;;3.60;;
3971;SDS011;2000;47.572;14.202;2022-07-21T01:34:09;4.80;;;4.27;;
3971;SDS011;2000;47.572;14.202;2022-07-21T01:36:36;4.60;;;4.20;;
3971;SDS011;2000;47.572;14.202;2022-07-21T01:39:03;9.10;;;4.70;;
3971;SDS011;2000;47.572;14.202;2022-07-21T01:41:50;5.50;;;4.13;;
3971;SDS011;2000;47.572;14.202;2022-07-21T01:44:17;6.00;;;4.57;;
3971;SDS011;2000;47.572;14.202;2022-07-21T01:46:46;8.03;;;4.77;;
3971;SDS011;2000;47.572;14.202;2022-07-21T01:49:15;4.90;;;4.40;;
3971;SDS011;2000;47.572;14.202;2022-07-21T01:51:43;7.10;;;4.50;;
3971;SDS011;2000;47.572;14.202;2022-07-21T01:54:10;7.97;;;4.07;;
3971;SDS011;2000;47.572;14.202;2022-07-21T01:56:37;7.07;;;4.07;;
3971;SDS011;2000;47.572;14.202;2022-07-21T01:59:05;10.40;;;5.50;;
3971;SDS011;2000;47.572;14.202;2022-07-21T02:01:32;5.60;;;4.40;;
3971;SDS011;2000;47.572;14.202;2022-07-21T02:04:02;6.30;;;4.67;;
3971;SDS011;2000;47.572;14.202;2022-07-21T02:06:30;8.00;;;4.40;;
3971;SDS011;2000;47.572;14.202;2022-07-21T02:08:57;6.40;;;4.00;;
3971;SDS011;2000;47.572;14.202;2022-07-21T02:11:24;7.93;;;5.00;;
3971;SDS011;2000;47.572;14.202;2022-07-21T02:13:51;5.23;;;4.13;;
3971;SDS011;2000;47.572;14.202;2022-07-21T02:16:18;7.10;;;4.67;;
3971;SDS011;2000;47.572;14.202;2022-07-21T02:18:45;7.27;;;4.47;;
3971;SDS011;2000;47.572;14.202;2022-07-21T02:21:12;5.43;;;4.00;;
3971;SDS011;2000;47.572;14.202;2022-07-21T02:23:38;4.80;;;4.30;;
3971;SDS011;2000;47.572;14.202;2022-07-21T02:26:05;11.53;;;5.53;;
3971;SDS011;2000;47.572;14.202;2022-07-21T02:28:33;4.20;;;3.80;;
3971;SDS011;2000;47.572;14.202;2022-07-21T02:30:59;6.13;;;4.17;;
3971;SDS011;2000;47.572;14.202;2022-07-21T02:33:26;6.27;;;4.90;;
3971;SDS011;2000;47.572;14.202;2022-07-21T02:35:53;8.57;;;4.80;;
3971;SDS011;2000;47.572;14.202;2022-07-21T02:38:20;5.17;;;4.67;;
3971;SDS011;2000;47.572;14.202;2022-07-21T02:40:46;5.73;;;4.13;;
3971;SDS011;2000;47.572;14.202;2022-07-21T02:43:18;6.97;;;4.77;;
3971;SDS011;2000;47.572;14.202;2022-07-21T02:45:45;11.60;;;4.70;;
3971;SDS011;2000;47.572;14.202;2022-07-21T02:48:12;6.90;;;4.33;;
3971;SDS011;2000;47.572;14.202;2022-07-21T02:50:40;7.47;;;4.83;;
3971;SDS011;2000;47.572;14.202;2022-07-21T02:53:09;13.10;;;4.73;;
3971;SDS011;2000;47.572;14.202;2022-07-21T02:55:39;6.67;;;4.30;;
3971;SDS011;2000;47.572;14.202;2022-07-21T02:58:10;7.00;;;4.90;;
3971;SDS011;2000;47.572;14.202;2022-07-21T03:00:39;7.93;;;5.20;;
3971;SDS011;2000;47.572;14.202;2022-07-21T03:03:15;7.57;;;4.37;;
3971;SDS011;2000;47.572;14.202;2022-07-21T03:05:42;14.83;;;5.20;;
3971;SDS011;2000;47.572;14.202;2022-07-21T03:08:09;6.80;;;4.70;;
3971;SDS011;2000;47.572;14.202;2022-07-21T03:10:37;11.70;;;5.40;;
3971;SDS011;2000;47.572;14.202;2022-07-21T03:13:04;5.83;;;5.13;;
3971;SDS011;2000;47.572;14.202;2022-07-21T03:15:32;8.07;;;5.03;;
3971;SDS011;2000;47.572;14.202;2022-07-21T03:17:59;5.87;;;5.20;;
3971;SDS011;2000;47.572;14.202;2022-07-21T03:20:26;12.80;;;5.40;;
3971;SDS011;2000;47.572;14.202;2022-07-21T03:22:55;8.73;;;4.80;;
3971;SDS011;2000;47.572;14.202;2022-07-21T03:25:22;10.53;;;5.03;;
3971;SDS011;2000;47.572;14.202;2022-07-21T03:27:49;8.60;;;5.10;;
3971;SDS011;2000;47.572;14.202;2022-07-21T03:30:16;17.63;;;5.50;;
3971;SDS011;2000;47.572;14.202;2022-07-21T03:32:43;7.80;;;5.63;;
3971;SDS011;2000;47.572;14.202;2022-07-21T03:35:11;5.80;;;4.80;;
3971;SDS011;2000;47.572;14.202;2022-07-21T03:37:45;8.30;;;5.37;;
3971;SDS011;2000;47.572;14.202;2022-07-21T03:40:14;10.20;;;5.13;;
3971;SDS011;2000;47.572;14.202;2022-07-21T03:42:42;11.50;;;5.37;;
3971;SDS011;2000;47.572;14.202;2022-07-21T03:45:09;10.20;;;5.43;;
3971;SDS011;2000;47.572;14.202;2022-07-21T03:47:37;6.23;;;4.83;;
3971;SDS011;2000;47.572;14.202;2022-07-21T03:50:04;8.83;;;5.40;;
3971;SDS011;2000;47.572;14.202;2022-07-21T03:52:31;5.70;;;5.20;;
3971;SDS011;2000;47.572;14.202;2022-07-21T03:54:58;11.30;;;6.00;;
3971;SDS011;2000;47.572;14.202;2022-07-21T03:57:50;7.47;;;5.10;;
3971;SDS011;2000;47.572;14.202;2022-07-21T04:02:56;6.80;;;5.83;;
3971;SDS011;2000;47.572;14.202;2022-07-21T04:05:22;9.80;;;5.40;;
3971;SDS011;2000;47.572;14.202;2022-07-21T04:07:50;8.00;;;5.73;;
3971;SDS011;2000;47.572;14.202;2022-07-21T04:10:25;8.77;;;5.30;;
3971;SDS011;2000;47.572;14.202;2022-07-21T04:12:54;7.83;;;5.33;;
3971;SDS011;2000;47.572;14.202;2022-07-21T04:15:21;6.10;;;4.93;;
3971;SDS011;2000;47.572;14.202;2022-07-21T04:17:48;6.10;;;5.50;;
3971;SDS011;2000;47.572;14.202;2022-07-21T04:20:15;8.10;;;5.40;;
3971;SDS011;2000;47.572;14.202;2022-07-21T04:22:43;6.87;;;4.83;;
3971;SDS011;2000;47.572;14.202;2022-07-21T04:25:11;8.30;;;4.80;;
3971;SDS011;2000;47.572;14.202;2022-07-21T04:27:38;8.40;;;5.40;;
3971;SDS011;2000;47.572;14.202;2022-07-21T04:30:05;6.20;;;5.60;;
3971;SDS011;2000;47.572;14.202;2022-07-21T04:32:33;6.53;;;5.53;;
3971;SDS011;2000;47.572;14.202;2022-07-21T04:35:00;16.03;;;5.90;;
3971;SDS011;2000;47.572;14.202;2022-07-21T04:37:27;27.83;;;6.33;;
3971;SDS011;2000;47.572;14.202;2022-07-21T04:39:53;5.13;;;4.70;;
3971;SDS011;2000;47.572;14.202;2022-07-21T04:42:20;7.40;;;5.33;;
3971;SDS011;2000;47.572;14.202;2022-07-21T04:44:47;13.70;;;5.10;;
3971;SDS011;2000;47.572;14.202;2022-07-21T04:47:14;5.87;;;5.03;;
3971;SDS011;2000;47.572;14.202;2022-07-21T04:49:41;9.00;;;5.90;;
3971;SDS011;2000;47.572;14.202;2022-07-21T04:52:08;6.90;;;6.20;;
3971;SDS011;2000;47.572;14.202;2022-07-21T04:54:34;6.73;;;5.77;;
3971;SDS011;2000;47.572;14.202;2022-07-21T04:57:01;9.87;;;5.23;;
3971;SDS011;2000;47.572;14.202;2022-07-21T04:59:32;5.43;;;4.93;;
3971;SDS011;2000;47.572;14.202;2022-07-21T05:02:00;10.13;;;5.83;;
3971;SDS011;2000;47.572;14.202;2022-07-21T05:04:27;8.77;;;5.80;;
3971;SDS011;2000;47.572;14.202;2022-07-21T05:06:54;11.83;;;4.73;;
3971;SDS011;2000;47.572;14.202;2022-07-21T05:09:21;8.40;;;5.40;;
3971;SDS011;2000;47.572;14.202;2022-07-21T05:11:47;6.43;;;5.80;;
3971;SDS011;2000;47.572;14.202;2022-07-21T05:14:14;13.53;;;6.00;;
3971;SDS011;2000;47.572;14.202;2022-07-21T05:16:42;9.27;;;5.93;;
3971;SDS011;2000;47.572;14.202;2022-07-21T05:19:09;7.47;;;5.67;;
3971;SDS011;2000;47.572;14.202;2022-07-21T05:21:36;8.10;;;5.80;;
3971;SDS011;2000;47.572;14.202;2022-07-21T05:24:03;7.97;;;6.00;;
3971;SDS011;2000;47.572;14.202;2022-07-21T05:26:30;5.90;;;5.40;;
3971;SDS011;2000;47.572;14.202;2022-07-21T05:28:56;10.20;;;5.53;;
3971;SDS011;2000;47.572;14.202;2022-07-21T05:31:23;12.13;;;6.63;;
3971;SDS011;2000;47.572;14.202;2022-07-21T05:33:50;9.20;;;5.60;;
3971;SDS011;2000;47.572;14.202;2022-07-21T05:36:17;11.40;;;6.70;;
3971;SDS011;2000;47.572;14.202;2022-07-21T05:38:45;7.20;;;6.17;;
3971;SDS011;2000;47.572;14.202;2022-07-21T05:41:13;12.80;;;6.30;;
3971;SDS011;2000;47.572;14.202;2022-07-21T05:43:39;7.20;;;5.43;;
3971;SDS011;2000;47.572;14.202;2022-07-21T05:46:06;15.70;;;5.00;;
3971;SDS011;2000;47.572;14.202;2022-07-21T05:48:33;12.03;;;6.40;;
3971;SDS011;2000;47.572;14.202;2022-07-21T05:51:00;11.13;;;6.07;;
3971;SDS011;2000;47.572;14.202;2022-07-21T05:53:27;13.90;;;7.10;;
3971;SDS011;2000;47.572;14.202;2022-07-21T05:55:55;10.40;;;5.63;;
3971;SDS011;2000;47.572;14.202;2022-07-21T05:58:22;11.87;;;6.53;;
3971;SDS011;2000;47.572;14.202;2022-07-21T06:00:54;16.83;;;5.70;;
3971;SDS011;2000;47.572;14.202;2022-07-21T06:03:39;17.13;;;7.53;;
3971;SDS011;2000;47.572;14.202;2022-07-21T06:06:08;10.50;;;7.07;;
3971;SDS011;2000;47.572;14.202;2022-07-21T06:08:37;18.60;;;6.40;;
3971;SDS011;2000;47.572;14.202;2022-07-21T06:11:05;10.10;;;7.27;;
3971;SDS011;2000;47.572;14.202;2022-07-21T06:13:35;9.07;;;7.47;;
3971;SDS011;2000;47.572;14.202;2022-07-21T06:16:02;16.87;;;8.43;;
3971;SDS011;2000;47.572;14.202;2022-07-21T06:18:30;14.30;;;8.70;;
3971;SDS011;2000;47.572;14.202;2022-07-21T06:20:56;17.10;;;8.13;;
3971;SDS011;2000;47.572;14.202;2022-07-21T06:23:23;24.83;;;9.10;;
3971;SDS011;2000;47.572;14.202;2022-07-21T06:25:50;10.50;;;7.53;;
3971;SDS011;2000;47.572;14.202;2022-07-21T06:28:18;13.80;;;8.07;;
3971;SDS011;2000;47.572;14.202;2022-07-21T06:30:46;20.47;;;9.73;;
3971;SDS011;2000;47.572;14.202;2022-07-21T06:33:13;21.13;;;8.83;;
3971;SDS011;2000;47.572;14.202;2022-07-21T06:35:40;18.43;;;9.00;;
3971;SDS011;2000;47.572;14.202;2022-07-21T06:38:07;19.77;;;9.77;;
3971;SDS011;2000;47.572;14.202;2022-07-21T06:40:38;17.43;;;9.80;;
3971;SDS011;2000;47.572;14.202;2022-07-21T06:43:05;15.70;;;8.43;;
3971;SDS011;2000;47.572;14.202;2022-07-21T06:45:52;15.43;;;8.83;;
3971;SDS011;2000;47.572;14.202;2022-07-21T06:48:19;16.83;;;9.20;;
3971;SDS011;2000;47.572;14.202;2022-07-21T06:50:48;17.90;;;11.00;;
3971;SDS011;2000;47.572;14.202;2022-07-21T06:53:16;18.63;;;11.67;;
3971;SDS011;2000;47.572;14.202;2022-07-21T06:55:42;24.10;;;11.27;;
3971;SDS011;2000;47.572;14.202;2022-07-21T06:58:13;18.67;;;11.40;;
3971;SDS011;2000;47.572;14.202;2022-07-21T07:00:42;16.20;;;9.90;;
3971;SDS011;2000;47.572;14.202;2022-07-21T07:03:11;23.07;;;10.60;;
3971;SDS011;2000;47.572;14.202;2022-07-21T07:05:39;19.50;;;11.23;;
3971;SDS011;2000;47.572;14.202;2022-07-21T07:08:06;21.20;;;10.47;;
3971;SDS011;2000;47.572;14.202;2022-07-21T07:10:37;25.40;;;9.10;;
3971;SDS011;2000;47.572;14.202;2022-07-21T07:13:08;27.17;;;11.10;;
3971;SDS011;2000;47.572;14.202;2022-07-21T07:15:55;21.93;;;9.87;;
3971;SDS011;2000;47.572;14.202;2022-07-21T07:18:22;16.60;;;8.80;;
3971;SDS011;2000;47.572;14.202;2022-07-21T07:20:50;13.10;;;8.27;;
3971;SDS011;2000;47.572;14.202;2022-07-21T07:23:18;20.30;;;9.67;;
3971;SDS011;2000;47.572;14.202;2022-07-21T07:25:45;15.43;;;8.33;;
3971;SDS011;2000;47.572;14.202;2022-07-21T07:28:12;15.83;;;8.80;;
3971;SDS011;2000;47.572;14.202;2022-07-21T07:30:39;13.57;;;8.33;;
3971;SDS011;2000;47.572;14.202;2022-07-21T07:33:06;20.60;;;9.20;;
3971;SDS011;2000;47.572;14.202;2022-07-21T07:35:33;17.40;;;10.37;;
3971;SDS011;2000;47.572;14.202;2022-07-21T07:38:00;18.00;;;9.57;;
3971;SDS011;2000;47.572;14.202;2022-07-21T07:40:27;21.13;;;9.30;;
3971;SDS011;2000;47.572;14.202;2022-07-21T07:42:54;18.20;;;9.33;;
3971;SDS011;2000;47.572;14.202;2022-07-21T07:45:21;16.27;;;10.70;;
3971;SDS011;2000;47.572;14.202;2022-07-21T07:47:48;14.07;;;9.43;;
3971;SDS011;2000;47.572;14.202;2022-07-21T07:50:15;22.67;;;9.53;;
3971;SDS011;2000;47.572;14.202;2022-07-21T07:52:43;17.30;;;9.97;;
3971;SDS011;2000;47.572;14.202;2022-07-21T07:55:10;14.77;;;9.17;;
3971;SDS011;2000;47.572;14.202;2022-07-21T07:57:38;10.90;;;8.57;;
3971;SDS011;2000;47.572;14.202;2022-07-21T08:00:08;10.13;;;8.77;;
3971;SDS011;2000;47.572;14.202;2022-07-21T08:02:56;15.07;;;8.73;;
3971;SDS011;2000;47.572;14.202;2022-07-21T08:05:23;12.40;;;8.77;;
3971;SDS011;2000;47.572;14.202;2022-07-21T08:07:50;22.37;;;9.67;;
3971;SDS011;2000;47.572;14.202;2022-07-21T08:10:18;13.27;;;8.73;;
3971;SDS011;2000;47.572;14.202;2022-07-21T08:13:05;23.10;;;10.00;;
3971;SDS011;2000;47.572;14.202;2022-07-21T08:15:33;14.30;;;9.63;;
3971;SDS011;2000;47.572;14.202;2022-07-21T08:18:00;16.40;;;8.40;;
3971;SDS011;2000;47.572;14.202;2022-07-21T08:20:27;10.03;;;9.00;;
3971;SDS011;2000;47.572;14.202;2022-07-21T08:22:54;15.93;;;9.57;;
3971;SDS011;2000;47.572;14.202;2022-07-21T08:25:21;12.60;;;7.40;;
3971;SDS011;2000;47.572;14.202;2022-07-21T08:27:48;15.73;;;8.20;;
3971;SDS011;2000;47.572;14.202;2022-07-21T08:30:15;14.90;;;7.37;;
3971;SDS011;2000;47.572;14.202;2022-07-21T08:32:42;14.00;;;7.63;;
3971;SDS011;2000;47.572;14.202;2022-07-21T08:35:09;20.13;;;8.20;;
3971;SDS011;2000;47.572;14.202;2022-07-21T08:37:36;8.23;;;5.93;;
3971;SDS011;2000;47.572;14.202;2022-07-21T08:40:04;9.50;;;7.20;;
3971;SDS011;2000;47.572;14.202;2022-07-21T08:42:33;9.83;;;7.13;;
3971;SDS011;2000;47.572;14.202;2022-07-21T08:45:00;8.23;;;5.90;;
3971;SDS011;2000;47.572;14.202;2022-07-21T08:47:27;8.00;;;6.17;;
3971;SDS011;2000;47.572;14.202;2022-07-21T08:49:55;10.30;;;5.97;;
3971;SDS011;2000;47.572;14.202;2022-07-21T08:52:23;8.07;;;6.93;;
3971;SDS011;2000;47.572;14.202;2022-07-21T08:54:50;12.23;;;7.00;;
3971;SDS011;2000;47.572;14.202;2022-07-21T08:57:17;9.33;;;6.13;;
3971;SDS011;2000;47.572;14.202;2022-07-21T08:59:45;8.60;;;7.03;;
3971;SDS011;2000;47.572;14.202;2022-07-21T09:02:26;8.63;;;6.63;;
3971;SDS011;2000;47.572;14.202;2022-07-21T09:04:58;9.50;;;7.10;;
3971;SDS011;2000;47.572;14.202;2022-07-21T09:07:26;9.90;;;6.00;;
3971;SDS011;2000;47.572;14.202;2022-07-21T09:09:57;8.20;;;5.17;;
3971;SDS011;2000;47.572;14.202;2022-07-21T09:12:27;10.40;;;6.30;;
3971;SDS011;2000;47.572;14.202;2022-07-21T09:17:45;11.33;;;5.83;;
3971;SDS011;2000;47.572;14.202;2022-07-21T09:20:32;5.93;;;5.33;;
3971;SDS011;2000;47.572;14.202;2022-07-21T09:23:12;6.23;;;5.00;;
3971;SDS011;2000;47.572;14.202;2022-07-21T09:28:14;9.17;;;5.60;;
3971;SDS011;2000;47.572;14.202;2022-07-21T09:36:12;9.40;;;6.10;;
3971;SDS011;2000;47.572;14.202;2022-07-21T09:38:51;9.43;;;5.93;;
3971;SDS011;2000;47.572;14.202;2022-07-21T09:41:23;12.97;;;5.60;;
3971;SDS011;2000;47.572;14.202;2022-07-21T09:43:51;4.70;;;4.30;;
3971;SDS011;2000;47.572;14.202;2022-07-21T09:46:20;7.60;;;5.87;;
3971;SDS011;2000;47.572;14.202;2022-07-21T09:48:49;8.50;;;5.37;;
3971;SDS011;2000;47.572;14.202;2022-07-21T09:51:38;8.73;;;5.83;;
3971;SDS011;2000;47.572;14.202;2022-07-21T09:54:09;6.50;;;5.67;;
3971;SDS011;2000;47.572;14.202;2022-07-21T09:56:45;12.10;;;4.60;;
3971;SDS011;2000;47.572;14.202;2022-07-21T09:59:14;9.83;;;5.53;;
3971;SDS011;2000;47.572;14.202;2022-07-21T10:01:41;7.90;;;5.23;;
3971;SDS011;2000;47.572;14.202;2022-07-21T10:04:08;9.60;;;5.70;;
3971;SDS011;2000;47.572;14.202;2022-07-21T10:06:36;7.80;;;5.97;;
3971;SDS011;2000;47.572;14.202;2022-07-21T10:09:06;11.30;;;6.57;;
3971;SDS011;2000;47.572;14.202;2022-07-21T10:11:38;7.00;;;6.20;;
3971;SDS011;2000;47.572;14.202;2022-07-21T10:14:08;10.47;;;5.17;;
3971;SDS011;2000;47.572;14.202;2022-07-21T10:16:38;10.10;;;5.70;;
3971;SDS011;2000;47.572;14.202;2022-07-21T10:20:00;6.30;;;5.70;;
3971;SDS011;2000;47.572;14.202;2022-07-21T10:24:49;6.60;;;5.20;;
3971;SDS011;2000;47.572;14.202;2022-07-21T10:27:16;8.23;;;5.50;;
3971;SDS011;2000;47.572;14.202;2022-07-21T10:32:48;11.20;;;5.30;;
3971;SDS011;2000;47.572;14.202;2022-07-21T10:37:51;8.53;;;6.40;;
3971;SDS011;2000;47.572;14.202;2022-07-21T10:45:33;11.70;;;7.20;;
3971;SDS011;2000;47.572;14.202;2022-07-21T10:48:05;8.40;;;5.70;;
3971;SDS011;2000;47.572;14.202;2022-07-21T10:50:34;12.47;;;7.20;;
3971;SDS011;2000;47.572;14.202;2022-07-21T10:53:12;7.87;;;6.60;;
3971;SDS011;2000;47.572;14.202;2022-07-21T10:55:47;10.57;;;4.97;;
3971;SDS011;2000;47.572;14.202;2022-07-21T11:03:35;5.60;;;5.20;;
3971;SDS011;2000;47.572;14.202;2022-07-21T11:11:29;6.60;;;5.57;;
3971;SDS011;2000;47.572;14.202;2022-07-21T11:22:09;7.23;;;6.07;;
3971;SDS011;2000;47.572;14.202;2022-07-21T11:24:38;6.77;;;5.40;;
3971;SDS011;2000;47.572;14.202;2022-07-21T11:27:14;9.13;;;5.30;;
3971;SDS011;2000;47.572;14.202;2022-07-21T11:29:43;13.57;;;6.30;;
3971;SDS011;2000;47.572;14.202;2022-07-21T11:32:11;6.20;;;5.40;;
3971;SDS011;2000;47.572;14.202;2022-07-21T11:34:43;8.57;;;5.40;;
3971;SDS011;2000;47.572;14.202;2022-07-21T11:37:13;7.00;;;4.93;;
3971;SDS011;2000;47.572;14.202;2022-07-21T11:40:03;6.73;;;5.77;;
3971;SDS011;2000;47.572;14.202;2022-07-21T11:42:32;6.43;;;5.70;;
3971;SDS011;2000;47.572;14.202;2022-07-21T11:45:00;9.07;;;6.17;;
3971;SDS011;2000;47.572;14.202;2022-07-21T11:47:26;10.33;;;5.20;;
3971;SDS011;2000;47.572;14.202;2022-07-21T11:49:54;7.37;;;6.20;;
3971;SDS011;2000;47.572;14.202;2022-07-21T11:52:27;6.57;;;5.97;;
3971;SDS011;2000;47.572;14.202;2022-07-21T11:54:55;6.03;;;5.53;;
3971;SDS011;2000;47.572;14.202;2022-07-21T11:57:25;8.83;;;5.87;;
3971;SDS011;2000;47.572;14.202;2022-07-21T11:59:53;7.67;;;5.57;;
3971;SDS011;2000;47.572;14.202;2022-07-21T12:02:27;8.10;;;5.57;;
3971;SDS011;2000;47.572;14.202;2022-07-21T12:04:57;5.43;;;4.97;;
3971;SDS011;2000;47.572;14.202;2022-07-21T12:07:29;6.40;;;5.80;;
3971;SDS011;2000;47.572;14.202;2022-07-21T12:09:59;6.77;;;6.10;;
3971;SDS011;2000;47.572;14.202;2022-07-21T12:12:37;8.90;;;6.00;;
3971;SDS011;2000;47.572;14.202;2022-07-21T12:15:47;9.63;;;5.53;;
3971;SDS011;2000;47.572;14.202;2022-07-21T12:17:58;5.70;;;5.17;;
3971;SDS011;2000;47.572;14.202;2022-07-21T12:23:19;12.27;;;5.40;;
3971;SDS011;2000;47.572;14.202;2022-07-21T12:25:55;6.33;;;5.60;;
3971;SDS011;2000;47.572;14.202;2022-07-21T12:31:11;5.50;;;5.00;;
3971;SDS011;2000;47.572;14.202;2022-07-21T12:33:41;5.83;;;5.20;;
3971;SDS011;2000;47.572;14.202;2022-07-21T12:36:28;8.00;;;5.10;;
3971;SDS011;2000;47.572;14.202;2022-07-21T12:38:55;10.87;;;5.63;;
3971;SDS011;2000;47.572;14.202;2022-07-21T12:41:22;9.60;;;6.10;;
3971;SDS011;2000;47.572;14.202;2022-07-21T12:43:55;5.83;;;5.27;;
3971;SDS011;2000;47.572;14.202;2022-07-21T12:46:33;7.00;;;5.97;;
3971;SDS011;2000;47.572;14.202;2022-07-21T12:49:05;5.20;;;4.80;;
3971;SDS011;2000;47.572;14.202;2022-07-21T12:51:38;6.80;;;6.17;;
3971;SDS011;2000;47.572;14.202;2022-07-21T12:54:06;6.67;;;5.73;;
3971;SDS011;2000;47.572;14.202;2022-07-21T12:56:33;12.03;;;5.50;;
3971;SDS011;2000;47.572;14.202;2022-07-21T12:59:01;9.97;;;6.70;;
3971;SDS011;2000;47.572;14.202;2022-07-21T13:01:29;11.90;;;5.57;;
3971;SDS011;2000;47.572;14.202;2022-07-21T13:03:58;5.40;;;4.90;;
3971;SDS011;2000;47.572;14.202;2022-07-21T13:06:25;8.47;;;5.50;;
3971;SDS011;2000;47.572;14.202;2022-07-21T13:08:52;7.37;;;5.53;;
3971;SDS011;2000;47.572;14.202;2022-07-21T13:11:20;8.87;;;5.80;;
3971;SDS011;2000;47.572;14.202;2022-07-21T13:13:47;7.60;;;5.80;;
3971;SDS011;2000;47.572;14.202;2022-07-21T13:16:16;5.13;;;4.63;;
3971;SDS011;2000;47.572;14.202;2022-07-21T13:18:44;6.67;;;5.60;;
3971;SDS011;2000;47.572;14.202;2022-07-21T13:21:11;6.90;;;5.87;;
3971;SDS011;2000;47.572;14.202;2022-07-21T13:23:39;10.73;;;6.10;;
3971;SDS011;2000;47.572;14.202;2022-07-21T13:26:05;6.93;;;6.10;;
3971;SDS011;2000;47.572;14.202;2022-07-21T13:28:33;6.27;;;5.63;;
3971;SDS011;2000;47.572;14.202;2022-07-21T13:31:03;6.83;;;6.23;;
3971;SDS011;2000;47.572;14.202;2022-07-21T13:33:32;8.10;;;5.63;;
3971;SDS011;2000;47.572;14.202;2022-07-21T13:35:59;12.23;;;5.60;;
3971;SDS011;2000;47.572;14.202;2022-07-21T13:38:26;5.40;;;4.90;;
3971;SDS011;2000;47.572;14.202;2022-07-21T13:40:53;7.00;;;6.37;;
3971;SDS011;2000;47.572;14.202;2022-07-21T13:43:40;10.50;;;5.83;;
3971;SDS011;2000;47.572;14.202;2022-07-21T13:46:08;5.93;;;5.40;;
3971;SDS011;2000;47.572;14.202;2022-07-21T13:48:34;7.00;;;5.97;;
3971;SDS011;2000;47.572;14.202;2022-07-21T13:51:09;7.80;;;6.00;;
3971;SDS011;2000;47.572;14.202;2022-07-21T13:53:38;6.73;;;6.00;;
3971;SDS011;2000;47.572;14.202;2022-07-21T13:56:05;9.90;;;7.03;;
3971;SDS011;2000;47.572;14.202;2022-07-21T13:58:32;11.53;;;6.80;;
3971;SDS011;2000;47.572;14.202;2022-07-21T14:00:59;7.53;;;6.20;;
3971;SDS011;2000;47.572;14.202;2022-07-21T14:03:26;9.70;;;5.80;;
3971;SDS011;2000;47.572;14.202;2022-07-21T14:05:53;8.13;;;6.47;;
3971;SDS011;2000;47.572;14.202;2022-07-21T14:08:20;8.90;;;6.17;;
3971;SDS011;2000;47.572;14.202;2022-07-21T14:10:47;8.80;;;6.63;;
3971;SDS011;2000;47.572;14.202;2022-07-21T14:13:14;6.37;;;5.60;;
3971;SDS011;2000;47.572;14.202;2022-07-21T14:15:41;11.60;;;5.03;;
3971;SDS011;2000;47.572;14.202;2022-07-21T14:18:08;9.17;;;6.30;;
3971;SDS011;2000;47.572;14.202;2022-07-21T14:20:34;10.93;;;6.80;;
3971;SDS011;2000;47.572;14.202;2022-07-21T14:23:01;7.50;;;5.60;;
3971;SDS011;2000;47.572;14.202;2022-07-21T14:25:28;25.87;;;6.90;;
3971;SDS011;2000;47.572;14.202;2022-07-21T14:27:56;7.20;;;6.00;;
3971;SDS011;2000;47.572;14.202;2022-07-21T14:30:24;7.40;;;6.23;;
3971;SDS011;2000;47.572;14.202;2022-07-21T14:32:53;7.00;;;6.30;;
3971;SDS011;2000;47.572;14.202;2022-07-21T14:35:20;7.17;;;6.47;;
3971;SDS011;2000;47.572;14.202;2022-07-21T14:37:48;8.13;;;6.30;;
3971;SDS011;2000;47.572;14.202;2022-07-21T14:40:18;16.00;;;6.40;;
3971;SDS011;2000;47.572;14.202;2022-07-21T14:42:46;14.03;;;7.00;;
3971;SDS011;2000;47.572;14.202;2022-07-21T14:45:14;10.80;;;6.40;;
3971;SDS011;2000;47.572;14.202;2022-07-21T14:47:51;15.90;;;7.17;;
3971;SDS011;2000;47.572;14.202;2022-07-21T14:50:20;7.00;;;6.20;;
3971;SDS011;2000;47.572;14.202;2022-07-21T14:52:53;8.43;;;6.20;;
3971;SDS011;2000;47.572;14.202;2022-07-21T14:55:23;9.00;;;7.30;;
3971;SDS011;2000;47.572;14.202;2022-07-21T14:57:52;11.17;;;6.97;;
3971;SDS011;2000;47.572;14.202;2022-07-21T15:00:19;11.90;;;7.10;;
3971;SDS011;2000;47.572;14.202;2022-07-21T15:02:48;10.83;;;7.80;;
3971;SDS011;2000;47.572;14.202;2022-07-21T15:05:15;10.20;;;7.30;;
3971;SDS011;2000;47.572;14.202;2022-07-21T15:07:42;10.83;;;9.00;;
3971;SDS011;2000;47.572;14.202;2022-07-21T15:10:09;17.63;;;8.97;;
3971;SDS011;2000;47.572;14.202;2022-07-21T15:12:36;13.87;;;7.90;;
3971;SDS011;2000;47.572;14.202;2022-07-21T15:15:03;9.10;;;8.00;;
3971;SDS011;2000;47.572;14.202;2022-07-21T15:17:30;12.60;;;8.80;;
3971;SDS011;2000;47.572;14.202;2022-07-21T15:19:58;11.33;;;8.57;;
3971;SDS011;2000;47.572;14.202;2022-07-21T15:22:27;14.47;;;8.77;;
3971;SDS011;2000;47.572;14.202;2022-07-21T15:24:57;11.00;;;8.43;;
3971;SDS011;2000;47.572;14.202;2022-07-21T15:27:25;9.60;;;8.50;;
3971;SDS011;2000;47.572;14.202;2022-07-21T15:29:52;13.13;;;8.00;;
3971;SDS011;2000;47.572;14.202;2022-07-21T15:32:18;8.47;;;7.50;;
3971;SDS011;2000;47.572;14.202;2022-07-21T15:34:45;8.70;;;7.80;;
3971;SDS011;2000;47.572;14.202;2022-07-21T15:37:12;14.27;;;8.20;;
3971;SDS011;2000;47.572;14.202;2022-07-21T15:39:39;11.33;;;9.00;;
3971;SDS011;2000;47.572;14.202;2022-07-21T15:42:06;16.63;;;8.73;;
3971;SDS011;2000;47.572;14.202;2022-07-21T15:44:35;9.63;;;8.00;;
3971;SDS011;2000;47.572;14.202;2022-07-21T15:47:05;9.10;;;7.90;;
3971;SDS011;2000;47.572;14.202;2022-07-21T15:49:32;13.30;;;8.40;;
3971;SDS011;2000;47.572;14.202;2022-07-21T15:52:00;11.47;;;9.13;;
3971;SDS011;2000;47.572;14.202;2022-07-21T15:54:30;12.97;;;9.60;;
3971;SDS011;2000;47.572;14.202;2022-07-21T15:57:17;15.30;;;10.07;;
3971;SDS011;2000;47.572;14.202;2022-07-21T15:59:44;16.53;;;11.03;;